createdAt,value
2022-08-04T00:03:21.595Z,20.00
2022-08-04T00:08:30.875Z,19.90
2022-08-04T00:12:57.374Z,19.90
2022-08-04T00:17:25.976Z,19.90
2022-08-04T00:21:56.355Z,19.80
2022-08-04T00:26:19.376Z,19.80
2022-08-04T00:30:42.974Z,19.90
2022-08-04T00:35:05.654Z,19.90
2022-08-04T00:39:30.251Z,19.90
2022-08-04T00:44:46.254Z,19.80
2022-08-04T00:49:47.674Z,19.80
2022-08-04T00:54:25.534Z,19.70
2022-08-04T00:59:19.134Z,19.70
2022-08-04T01:03:51.574Z,19.60
2022-08-04T01:08:55.354Z,19.50
2022-08-04T01:13:40.426Z,19.50
2022-08-04T01:18:02.194Z,19.40
2022-08-04T01:22:33.298Z,19.40
2022-08-04T01:27:38.823Z,19.30
2022-08-04T01:32:21.018Z,19.30
2022-08-04T01:37:08.303Z,19.20
2022-08-04T01:41:32.625Z,19.10
2022-08-04T01:46:01.658Z,19.00
2022-08-04T01:50:27.952Z,18.90
2022-08-04T01:54:51.023Z,18.90
2022-08-04T01:59:18.838Z,18.90
2022-08-04T02:04:18.639Z,18.90
2022-08-04T02:09:04.271Z,18.80
2022-08-04T02:13:36.614Z,18.70
2022-08-04T02:18:09.888Z,18.70
2022-08-04T02:22:39.823Z,18.70
2022-08-04T02:27:05.421Z,18.60
2022-08-04T02:31:28.853Z,18.50
2022-08-04T02:35:59.245Z,18.60
2022-08-04T02:40:26.678Z,18.70
2022-08-04T02:44:52.415Z,18.90
2022-08-04T02:49:16.322Z,19.00
2022-08-04T02:53:39.498Z,19.10
2022-08-04T02:58:04.486Z,19.20
2022-08-04T03:02:55.438Z,19.30
2022-08-04T03:07:58.357Z,19.30
2022-08-04T03:12:50.122Z,19.30
2022-08-04T03:17:24.304Z,19.30
2022-08-04T03:22:22.197Z,19.40
2022-08-04T03:27:33.553Z,19.40
2022-08-04T03:32:46.089Z,19.40
2022-08-04T03:38:01.003Z,19.40
2022-08-04T03:43:06.428Z,19.40
2022-08-04T03:48:05.948Z,19.30
2022-08-04T03:53:10.455Z,19.30
2022-08-04T03:58:13.083Z,19.20
2022-08-04T04:03:11.914Z,19.30
2022-08-04T04:08:46.765Z,20.20
2022-08-04T04:13:27.452Z,21.70
2022-08-04T04:18:34.384Z,23.30
2022-08-04T04:23:32.386Z,24.80
2022-08-04T04:28:44.488Z,26.30
2022-08-04T04:33:46.044Z,27.20
2022-08-04T04:39:01.430Z,28.70
2022-08-04T04:43:52.459Z,30.10
2022-08-04T04:48:42.165Z,31.60
2022-08-04T04:53:20.925Z,32.60
2022-08-04T04:57:54.643Z,33.60
2022-08-04T05:02:44.265Z,34.50
2022-08-04T05:07:38.797Z,35.20
2022-08-04T05:12:59.187Z,36.00
2022-08-04T05:17:25.765Z,37.30
2022-08-04T05:22:01.358Z,38.40
2022-08-04T05:26:31.564Z,38.50
2022-08-04T05:31:19.446Z,40.00
2022-08-04T05:36:17.951Z,40.50
2022-08-04T05:40:38.527Z,41.30
2022-08-04T05:45:01.824Z,43.00
2022-08-04T05:49:26.405Z,43.80
2022-08-04T05:53:49.685Z,43.70
2022-08-04T05:58:14.079Z,44.30
2022-08-04T06:02:38.343Z,44.40
2022-08-04T06:07:00.686Z,44.10
2022-08-04T06:11:25.465Z,43.00
2022-08-04T06:15:50.965Z,42.30
2022-08-04T06:20:20.365Z,44.30
2022-08-04T06:24:48.557Z,45.90
2022-08-04T06:29:21.384Z,47.50
2022-08-04T06:33:54.553Z,48.80
2022-08-04T06:38:17.705Z,49.50
2022-08-04T06:42:44.764Z,49.60
2022-08-04T06:47:08.203Z,50.00
2022-08-04T06:51:46.782Z,50.50
2022-08-04T06:56:12.124Z,51.20
2022-08-04T07:00:36.575Z,51.50
2022-08-04T07:04:58.848Z,51.40
2022-08-04T07:09:24.095Z,51.40
2022-08-04T07:13:48.438Z,52.00
2022-08-04T07:18:14.116Z,52.20
2022-08-04T07:22:37.336Z,52.30
2022-08-04T07:27:00.358Z,52.00
2022-08-04T07:31:34.246Z,52.20
2022-08-04T07:36:05.458Z,52.90
2022-08-04T07:40:37.237Z,53.20
2022-08-04T07:45:00.237Z,54.10
2022-08-04T07:49:55.169Z,54.10
2022-08-04T07:54:09.476Z,54.00
2022-08-04T07:58:31.957Z,53.60
2022-08-04T08:02:56.897Z,53.90
2022-08-04T08:07:21.560Z,54.80
2022-08-04T08:12:37.544Z,55.10
2022-08-04T08:16:31.298Z,55.50
2022-08-04T08:20:53.979Z,56.00
2022-08-04T08:25:16.436Z,55.10
2022-08-04T08:29:40.501Z,54.30
2022-08-04T08:34:02.857Z,54.70
2022-08-04T08:38:40.336Z,54.40
2022-08-04T08:44:04.584Z,54.30
2022-08-04T08:50:00.111Z,54.40
2022-08-04T08:54:13.499Z,54.00
2022-08-04T08:59:35.536Z,55.10
2022-08-04T09:04:32.992Z,54.50
2022-08-04T09:09:20.176Z,53.90
2022-08-04T09:13:53.058Z,54.50
2022-08-04T09:18:52.808Z,53.90
2022-08-04T09:23:57.280Z,53.80
2022-08-04T09:28:53.730Z,55.00
2022-08-04T09:33:45.540Z,55.60
2022-08-04T09:38:51.947Z,55.40
2022-08-04T09:44:41.987Z,55.30
2022-08-04T09:48:47.837Z,55.40
2022-08-04T09:53:49.256Z,55.10
2022-08-04T09:58:42.581Z,50.90
2022-08-04T10:03:05.369Z,51.30
2022-08-04T10:07:37.130Z,50.50
2022-08-04T10:12:50.519Z,52.10
2022-08-04T10:17:52.239Z,54.20
2022-08-04T10:23:10.425Z,54.40
2022-08-04T10:27:49.456Z,51.90
2022-08-04T10:32:43.308Z,50.00
2022-08-04T10:37:59.914Z,48.10
2022-08-04T10:42:27.936Z,45.60
2022-08-04T10:47:05.030Z,44.70
2022-08-04T10:51:58.715Z,45.00
2022-08-04T10:56:42.157Z,44.50
2022-08-04T11:02:00.689Z,46.40
2022-08-04T11:06:05.008Z,48.80
2022-08-04T11:10:35.177Z,50.20
2022-08-04T11:15:07.062Z,48.10
2022-08-04T11:20:12.670Z,44.80
2022-08-04T11:24:55.337Z,42.90
2022-08-04T11:29:33.443Z,42.10
2022-08-04T11:34:24.058Z,42.80
2022-08-04T11:39:36.793Z,42.30
2022-08-04T11:44:04.887Z,40.20
2022-08-04T11:49:04.287Z,39.80
2022-08-04T11:53:36.662Z,39.50
2022-08-04T11:57:59.640Z,39.40
2022-08-04T12:02:38.178Z,38.70
2022-08-04T12:07:40.695Z,38.50
2022-08-04T12:12:27.517Z,38.20
2022-08-04T12:17:02.157Z,38.40
2022-08-04T12:21:53.312Z,38.60
2022-08-04T12:26:31.437Z,38.60
2022-08-04T12:31:39.998Z,38.00
2022-08-04T12:36:39.458Z,37.20
2022-08-04T12:41:04.001Z,37.00
2022-08-04T12:45:26.576Z,36.90
2022-08-04T12:49:59.978Z,37.00
2022-08-04T12:54:29.221Z,37.40
2022-08-04T12:58:54.237Z,37.70
2022-08-04T13:03:18.236Z,38.00
2022-08-04T13:07:51.137Z,38.10
2022-08-04T13:12:25.967Z,37.80
2022-08-04T13:17:02.309Z,37.70
2022-08-04T13:21:50.551Z,37.30
2022-08-04T13:26:44.109Z,37.10
2022-08-04T13:31:08.492Z,37.10
2022-08-04T13:35:54.851Z,37.00
2022-08-04T13:40:16.682Z,36.90
2022-08-04T13:44:41.578Z,36.60
2022-08-04T13:49:34.609Z,36.20
2022-08-04T13:54:01.018Z,36.10
2022-08-04T13:58:25.976Z,36.30
2022-08-04T14:02:53.819Z,36.40
2022-08-04T14:07:21.232Z,36.60
2022-08-04T14:12:14.652Z,36.90
2022-08-04T14:17:30.266Z,36.90
2022-08-04T14:21:53.316Z,36.70
2022-08-04T14:26:35.500Z,36.60
2022-08-04T14:31:17.819Z,36.50
2022-08-04T14:35:50.185Z,36.50
2022-08-04T14:40:31.677Z,36.50
2022-08-04T14:45:01.257Z,36.20
2022-08-04T14:49:24.167Z,36.00
2022-08-04T14:53:48.878Z,36.00
2022-08-04T14:58:34.257Z,35.90
2022-08-04T15:03:10.558Z,35.60
2022-08-04T15:07:33.677Z,35.30
2022-08-04T15:11:56.277Z,35.40
2022-08-04T15:16:19.276Z,35.40
2022-08-04T15:20:44.657Z,35.50
2022-08-04T15:25:07.798Z,35.40
2022-08-04T15:29:59.450Z,35.30
2022-08-04T15:34:24.279Z,35.10
2022-08-04T15:39:21.407Z,35.00
2022-08-04T15:44:03.340Z,34.60
2022-08-04T15:48:29.217Z,34.30
2022-08-04T15:53:09.989Z,34.20
2022-08-04T15:58:02.221Z,34.40
2022-08-04T16:02:39.039Z,34.40
2022-08-04T16:07:07.817Z,34.30
2022-08-04T16:11:32.291Z,34.10
2022-08-04T16:16:03.102Z,34.00
2022-08-04T16:20:27.949Z,33.80
2022-08-04T16:24:54.837Z,33.60
2022-08-04T16:29:27.521Z,33.30
2022-08-04T16:33:50.149Z,33.30
2022-08-04T16:38:34.038Z,33.30
2022-08-04T16:43:25.498Z,33.30
2022-08-04T16:47:53.219Z,33.30
2022-08-04T16:52:17.277Z,33.20
2022-08-04T16:56:39.817Z,33.20
2022-08-04T17:01:21.949Z,33.10
2022-08-04T17:06:15.437Z,33.00
2022-08-04T17:10:47.490Z,32.90
2022-08-04T17:15:24.118Z,32.80
2022-08-04T17:19:53.880Z,32.70
2022-08-04T17:24:17.961Z,32.60
2022-08-04T17:28:47.502Z,32.50
2022-08-04T17:33:14.965Z,32.50
2022-08-04T17:37:41.111Z,32.50
2022-08-04T17:42:14.997Z,32.40
2022-08-04T17:46:43.370Z,32.30
2022-08-04T17:51:17.378Z,32.20
2022-08-04T17:55:49.319Z,32.00
2022-08-04T18:00:19.318Z,31.90
2022-08-04T18:04:56.287Z,31.80
2022-08-04T18:09:57.850Z,31.70
2022-08-04T18:14:15.777Z,31.50
2022-08-04T18:18:38.363Z,31.30
2022-08-04T18:23:01.356Z,31.10
2022-08-04T18:27:30.041Z,31.00
2022-08-04T18:31:52.576Z,30.80
2022-08-04T18:36:33.964Z,30.30
2022-08-04T18:40:57.494Z,29.90
2022-08-04T18:45:21.337Z,29.50
2022-08-04T18:50:58.537Z,29.20
2022-08-04T18:54:26.196Z,28.90
2022-08-04T18:58:48.976Z,28.70
2022-08-04T19:03:11.719Z,28.60
2022-08-04T19:08:02.001Z,28.50
2022-08-04T19:12:26.980Z,28.40
2022-08-04T19:16:50.216Z,28.30
2022-08-04T19:21:12.737Z,28.10
2022-08-04T19:25:58.761Z,27.90
2022-08-04T19:30:19.956Z,27.70
2022-08-04T19:34:47.823Z,27.80
2022-08-04T19:39:11.932Z,28.00
2022-08-04T19:43:35.377Z,28.00
2022-08-04T19:48:11.514Z,27.90
2022-08-04T19:52:40.498Z,27.90
2022-08-04T19:57:14.083Z,27.90
2022-08-04T20:01:44.040Z,27.80
2022-08-04T20:06:07.757Z,27.70
2022-08-04T20:10:31.014Z,27.60
2022-08-04T20:14:53.538Z,27.50
2022-08-04T20:19:17.398Z,27.50
2022-08-04T20:23:48.712Z,27.50
2022-08-04T20:28:36.155Z,27.40
2022-08-04T20:32:54.778Z,27.40
2022-08-04T20:37:17.900Z,27.20
2022-08-04T20:41:40.256Z,27.10
2022-08-04T20:46:18.119Z,27.00
2022-08-04T20:50:41.044Z,27.00
2022-08-04T20:55:05.176Z,27.00
2022-08-04T20:59:28.898Z,26.90
2022-08-04T21:04:09.597Z,26.90
2022-08-04T21:08:32.038Z,26.90
2022-08-04T21:12:59.198Z,26.80
2022-08-04T21:17:58.590Z,26.90
2022-08-04T21:22:10.586Z,26.90
2022-08-04T21:26:33.177Z,26.90
2022-08-04T21:30:56.102Z,26.80
2022-08-04T21:35:22.217Z,26.70
2022-08-04T21:40:13.662Z,26.60
2022-08-04T21:44:40.318Z,26.60
2022-08-04T21:49:05.338Z,26.40
2022-08-04T21:53:31.598Z,26.40
2022-08-04T21:57:54.539Z,26.50
2022-08-04T22:02:24.457Z,26.50
2022-08-04T22:06:52.220Z,26.40
2022-08-04T22:11:49.148Z,26.20
2022-08-04T22:16:19.117Z,26.10
2022-08-04T22:20:46.237Z,26.10
2022-08-04T22:29:39.394Z,25.90
2022-08-04T22:34:08.098Z,25.70
2022-08-04T22:38:48.730Z,25.50
2022-08-04T22:43:31.750Z,25.40
2022-08-04T22:48:01.037Z,25.20
2022-08-04T22:52:29.139Z,25.10
2022-08-04T22:56:54.557Z,25.00
2022-08-04T23:01:23.228Z,24.90
2022-08-04T23:05:48.217Z,24.80
2022-08-04T23:10:12.377Z,24.80
2022-08-04T23:14:34.398Z,24.80
2022-08-04T23:18:56.990Z,24.80
2022-08-04T23:23:19.481Z,24.70
2022-08-04T23:27:43.934Z,24.60
2022-08-04T23:32:10.660Z,24.50
2022-08-04T23:36:35.762Z,24.40
2022-08-04T23:41:19.161Z,24.40
2022-08-04T23:46:07.497Z,24.40
2022-08-04T23:50:25.362Z,24.30
2022-08-04T23:54:50.270Z,24.30
2022-08-04T23:59:17.886Z,24.40
